SPH2351 RPMD-RPLC
Flight info
| Callsign | SPH2351 |
|---|---|
| Flight time | N/A |
| Altitude | 38000 |
| Route | JOFER3R JOFER W8 MCT W11 MIA DCT RAYAT RAYAT5R |
| Aircraft | A20N/M-V/N |
Departure
| Time | 2026-04-30 19:24 |
|---|---|
| Airport | Francisco Bangoy International Airport (RPMD) |
Arrival
| Time | N/A |
|---|---|
| Airport | Clark International Airport / Clark Air Base (RPLC) |
| Time | Latitude | Longitude | Altitude | Speed | Heading |
|---|---|---|---|---|---|
| 2026-04-30 18:23 | 7.13029 | 125.64653 | 101 ft | 0 kts | 321° |
| 2026-04-30 19:12 | 7.13028 | 125.64654 | 101 ft | 2 kts | 320° |
| 2026-04-30 19:12 | 7.13009 | 125.64672 | 101 ft | 4 kts | 304° |
| 2026-04-30 19:12 | 7.12997 | 125.64696 | 101 ft | 4 kts | 284° |
| 2026-04-30 19:13 | 7.13001 | 125.64744 | 99 ft | 1 kts | 233° |
| 2026-04-30 19:16 | 7.13000 | 125.64743 | 99 ft | 1 kts | 233° |
| 2026-04-30 19:17 | 7.12984 | 125.64722 | 99 ft | 6 kts | 230° |
| 2026-04-30 19:17 | 7.12881 | 125.64626 | 100 ft | 14 kts | 225° |
| 2026-04-30 19:17 | 7.12803 | 125.64545 | 101 ft | 16 kts | 230° |
| 2026-04-30 19:18 | 7.12687 | 125.64473 | 100 ft | 11 kts | 172° |
| 2026-04-30 19:18 | 7.12625 | 125.64508 | 100 ft | 1 kts | 138° |
| 2026-04-30 19:18 | 7.12604 | 125.64527 | 100 ft | 7 kts | 137° |
| 2026-04-30 19:19 | 7.12554 | 125.64556 | 99 ft | 10 kts | 179° |
| 2026-04-30 19:19 | 7.12492 | 125.64512 | 98 ft | 13 kts | 229° |
| 2026-04-30 19:19 | 7.12336 | 125.64332 | 101 ft | 20 kts | 228° |
| 2026-04-30 19:20 | 7.12232 | 125.64228 | 99 ft | 20 kts | 198° |
| 2026-04-30 19:20 | 7.12213 | 125.64218 | 100 ft | 2 kts | 218° |
| 2026-04-30 19:20 | 7.12178 | 125.64156 | 100 ft | 11 kts | 240° |
| 2026-04-30 19:21 | 7.12125 | 125.64083 | 101 ft | 14 kts | 223° |
| 2026-04-30 19:21 | 7.11967 | 125.63903 | 100 ft | 20 kts | 230° |
| 2026-04-30 19:22 | 7.11763 | 125.63667 | 100 ft | 21 kts | 233° |
| 2026-04-30 19:22 | 7.11692 | 125.63585 | 98 ft | 6 kts | 57° |
| 2026-04-30 19:23 | 7.11701 | 125.63594 | 98 ft | 0 kts | 46° |
| 2026-04-30 19:24 | 7.11979 | 125.63912 | 100 ft | 101 kts | 46° |
| 2026-04-30 19:24 | 7.12589 | 125.64620 | 100 ft | 165 kts | 50° |
| 2026-04-30 19:24 | 7.14409 | 125.66394 | 1566 ft | 180 kts | 17° |
| 2026-04-30 19:25 | 7.18354 | 125.65920 | 3392 ft | 223 kts | 349° |
| 2026-04-30 19:26 | 7.21711 | 125.65343 | 4365 ft | 264 kts | 353° |
| 2026-04-30 19:26 | 7.25427 | 125.64846 | 6019 ft | 274 kts | 355° |
| 2026-04-30 19:26 | 7.27336 | 125.64609 | 6829 ft | 279 kts | 355° |
| 2026-04-30 19:27 | 7.31244 | 125.64116 | 8388 ft | 287 kts | 356° |
| 2026-04-30 19:27 | 7.35277 | 125.63629 | 9904 ft | 296 kts | 357° |
| 2026-04-30 19:28 | 7.37354 | 125.63379 | 10421 ft | 309 kts | 357° |
| 2026-04-30 19:28 | 7.41933 | 125.62831 | 10919 ft | 348 kts | 356° |
| 2026-04-30 19:29 | 7.46715 | 125.61773 | 12245 ft | 360 kts | 338° |
| 2026-04-30 19:29 | 7.48884 | 125.60469 | 12916 ft | 367 kts | 324° |
| 2026-04-30 19:30 | 7.54871 | 125.55479 | 14761 ft | 378 kts | 323° |
| 2026-04-30 19:30 | 7.59005 | 125.52124 | 15848 ft | 385 kts | 323° |
| 2026-04-30 19:31 | 7.63205 | 125.48761 | 16925 ft | 391 kts | 323° |
| 2026-04-30 19:31 | 7.65346 | 125.47047 | 17451 ft | 395 kts | 323° |
| 2026-04-30 19:31 | 7.69685 | 125.43573 | 18470 ft | 401 kts | 323° |
| 2026-04-30 19:32 | 7.71879 | 125.41814 | 18909 ft | 404 kts | 323° |
| 2026-04-30 19:32 | 7.74092 | 125.40042 | 19336 ft | 407 kts | 323° |
| 2026-04-30 19:32 | 7.76317 | 125.38262 | 19773 ft | 409 kts | 323° |
| 2026-04-30 19:32 | 7.78555 | 125.36475 | 20212 ft | 412 kts | 324° |
| 2026-04-30 19:33 | 7.80814 | 125.34670 | 20654 ft | 414 kts | 324° |
| 2026-04-30 19:33 | 7.83081 | 125.32858 | 21090 ft | 417 kts | 324° |
| 2026-04-30 19:33 | 7.85361 | 125.31035 | 21504 ft | 420 kts | 324° |
| 2026-04-30 19:33 | 7.87659 | 125.29195 | 21921 ft | 424 kts | 324° |
| 2026-04-30 19:34 | 7.89974 | 125.27340 | 22343 ft | 426 kts | 324° |
| 2026-04-30 19:34 | 7.92305 | 125.25470 | 22760 ft | 429 kts | 324° |
| 2026-04-30 19:34 | 7.97054 | 125.21815 | 23558 ft | 434 kts | 330° |
| 2026-04-30 19:35 | 7.99690 | 125.20328 | 23875 ft | 435 kts | 336° |
| 2026-04-30 19:35 | 8.02414 | 125.18972 | 24204 ft | 437 kts | 336° |
| 2026-04-30 19:35 | 8.05149 | 125.17614 | 24546 ft | 439 kts | 336° |
| 2026-04-30 19:35 | 8.07891 | 125.16231 | 24870 ft | 442 kts | 335° |
| 2026-04-30 19:36 | 8.10640 | 125.14818 | 25191 ft | 444 kts | 335° |
| 2026-04-30 19:36 | 8.13397 | 125.13384 | 25512 ft | 447 kts | 334° |
| 2026-04-30 19:36 | 8.18942 | 125.10474 | 26151 ft | 451 kts | 334° |
| 2026-04-30 19:37 | 8.21732 | 125.09008 | 26457 ft | 453 kts | 334° |
| 2026-04-30 19:37 | 8.24539 | 125.07535 | 26750 ft | 456 kts | 334° |
| 2026-04-30 19:37 | 8.27362 | 125.06054 | 27052 ft | 458 kts | 334° |
| 2026-04-30 19:37 | 8.30132 | 125.04602 | 27327 ft | 460 kts | 334° |
| 2026-04-30 19:38 | 8.32973 | 125.03114 | 27616 ft | 461 kts | 334° |
| 2026-04-30 19:38 | 8.35830 | 125.01618 | 27887 ft | 463 kts | 334° |
| 2026-04-30 19:38 | 8.38701 | 125.00114 | 28150 ft | 465 kts | 334° |
| 2026-04-30 19:38 | 8.41540 | 124.98627 | 28391 ft | 467 kts | 334° |
| 2026-04-30 19:39 | 8.44429 | 124.97113 | 28646 ft | 469 kts | 334° |
| 2026-04-30 19:39 | 8.47331 | 124.95592 | 28879 ft | 471 kts | 333° |
| 2026-04-30 19:39 | 8.50241 | 124.94067 | 29153 ft | 472 kts | 333° |
| 2026-04-30 19:39 | 8.53167 | 124.92535 | 29402 ft | 474 kts | 333° |
| 2026-04-30 19:40 | 8.56101 | 124.90998 | 29651 ft | 476 kts | 333° |
| 2026-04-30 19:40 | 8.59050 | 124.89454 | 29896 ft | 478 kts | 333° |
| 2026-04-30 19:40 | 8.62010 | 124.87904 | 30123 ft | 480 kts | 333° |
| 2026-04-30 19:40 | 8.64984 | 124.86346 | 30319 ft | 482 kts | 333° |
| 2026-04-30 19:41 | 8.67964 | 124.84785 | 30542 ft | 483 kts | 333° |
| 2026-04-30 19:41 | 8.70952 | 124.83220 | 30772 ft | 484 kts | 333° |
| 2026-04-30 19:41 | 8.73948 | 124.81650 | 31018 ft | 485 kts | 333° |
| 2026-04-30 19:41 | 8.76941 | 124.80082 | 31313 ft | 485 kts | 333° |
| 2026-04-30 19:42 | 8.79937 | 124.78513 | 31619 ft | 484 kts | 333° |
| 2026-04-30 19:42 | 8.82937 | 124.76941 | 31920 ft | 484 kts | 333° |
| 2026-04-30 19:42 | 8.85918 | 124.75380 | 32221 ft | 483 kts | 333° |
| 2026-04-30 19:42 | 8.88904 | 124.73816 | 32517 ft | 482 kts | 333° |
| 2026-04-30 19:43 | 8.91887 | 124.72253 | 32799 ft | 482 kts | 333° |
| 2026-04-30 19:43 | 8.94859 | 124.70696 | 33090 ft | 481 kts | 333° |
| 2026-04-30 19:43 | 8.97831 | 124.69139 | 33354 ft | 481 kts | 333° |
| 2026-04-30 19:44 | 9.03744 | 124.66041 | 33877 ft | 480 kts | 333° |
| 2026-04-30 19:44 | 9.06708 | 124.64486 | 34101 ft | 480 kts | 333° |
| 2026-04-30 19:44 | 9.09676 | 124.62929 | 34308 ft | 480 kts | 333° |
| 2026-04-30 19:44 | 9.12628 | 124.61381 | 34529 ft | 479 kts | 333° |
| 2026-04-30 19:45 | 9.15585 | 124.59830 | 34742 ft | 479 kts | 333° |
| 2026-04-30 19:45 | 9.18543 | 124.58278 | 34935 ft | 479 kts | 333° |
| 2026-04-30 19:45 | 9.21500 | 124.56727 | 35145 ft | 479 kts | 333° |
| 2026-04-30 19:45 | 9.24457 | 124.55175 | 35344 ft | 478 kts | 333° |
| 2026-04-30 19:46 | 9.27407 | 124.53627 | 35565 ft | 478 kts | 333° |
| 2026-04-30 19:46 | 9.30360 | 124.52076 | 35768 ft | 478 kts | 333° |
| 2026-04-30 19:46 | 9.33307 | 124.50529 | 35971 ft | 478 kts | 333° |
| 2026-04-30 19:46 | 9.36260 | 124.48978 | 36169 ft | 478 kts | 333° |
| 2026-04-30 19:47 | 9.39211 | 124.47428 | 36423 ft | 477 kts | 333° |
| 2026-04-30 19:47 | 9.41160 | 124.46404 | 36592 ft | 476 kts | 333° |
| 2026-04-30 19:47 | 9.45089 | 124.44340 | 36930 ft | 475 kts | 333° |
| 2026-04-30 19:47 | 9.48022 | 124.42799 | 37168 ft | 474 kts | 333° |
| 2026-04-30 19:48 | 9.50949 | 124.41261 | 37406 ft | 474 kts | 333° |
| 2026-04-30 19:48 | 9.53873 | 124.39724 | 37622 ft | 473 kts | 333° |
| 2026-04-30 19:48 | 9.56789 | 124.38190 | 37836 ft | 472 kts | 333° |
| 2026-04-30 19:49 | 9.62576 | 124.35145 | 37889 ft | 470 kts | 332° |
| 2026-04-30 19:49 | 9.71277 | 124.30565 | 37888 ft | 470 kts | 332° |
| 2026-04-30 19:50 | 9.77075 | 124.27511 | 37892 ft | 469 kts | 332° |
| 2026-04-30 19:50 | 9.82853 | 124.24466 | 37893 ft | 467 kts | 332° |
| 2026-04-30 19:51 | 9.88623 | 124.21425 | 37892 ft | 467 kts | 332° |
| 2026-04-30 19:51 | 9.94401 | 124.18379 | 37891 ft | 467 kts | 332° |
| 2026-04-30 19:52 | 10.00172 | 124.15335 | 37892 ft | 467 kts | 332° |
| 2026-04-30 19:52 | 10.05850 | 124.12339 | 37886 ft | 467 kts | 332° |
| 2026-04-30 19:53 | 10.11614 | 124.09296 | 37887 ft | 467 kts | 332° |
| 2026-04-30 19:53 | 10.17384 | 124.06249 | 37889 ft | 467 kts | 332° |
| 2026-04-30 19:54 | 10.23102 | 124.03227 | 37891 ft | 466 kts | 332° |
| 2026-04-30 19:54 | 10.28860 | 124.00183 | 37893 ft | 466 kts | 332° |
| 2026-04-30 19:55 | 10.34417 | 123.96807 | 37886 ft | 465 kts | 324° |
| 2026-04-30 19:55 | 10.39741 | 123.93068 | 37892 ft | 465 kts | 324° |
| 2026-04-30 19:56 | 10.45066 | 123.89339 | 37893 ft | 465 kts | 324° |
| 2026-04-30 19:56 | 10.50405 | 123.85624 | 37902 ft | 465 kts | 325° |
| 2026-04-30 19:57 | 10.55741 | 123.81917 | 37893 ft | 465 kts | 324° |
| 2026-04-30 19:57 | 10.60174 | 123.78837 | 37908 ft | 464 kts | 324° |
| 2026-04-30 19:58 | 10.65500 | 123.75134 | 37892 ft | 464 kts | 324° |
| 2026-04-30 19:58 | 10.70820 | 123.71433 | 37890 ft | 463 kts | 324° |
| 2026-04-30 19:59 | 10.76137 | 123.67731 | 37905 ft | 462 kts | 324° |
| 2026-04-30 20:00 | 10.84093 | 123.62188 | 37893 ft | 462 kts | 324° |
| 2026-04-30 20:00 | 10.89388 | 123.58498 | 37897 ft | 461 kts | 324° |
| 2026-04-30 20:01 | 10.97322 | 123.52965 | 37883 ft | 461 kts | 324° |
| 2026-04-30 20:01 | 11.02611 | 123.49275 | 37882 ft | 461 kts | 324° |
| 2026-04-30 20:02 | 11.10537 | 123.43742 | 37883 ft | 460 kts | 324° |
| 2026-04-30 20:03 | 11.18458 | 123.38209 | 37885 ft | 460 kts | 324° |
| 2026-04-30 20:03 | 11.23709 | 123.34539 | 37892 ft | 460 kts | 324° |
| 2026-04-30 20:04 | 11.29024 | 123.30822 | 37880 ft | 460 kts | 324° |
| 2026-04-30 20:05 | 11.36907 | 123.25304 | 37896 ft | 460 kts | 324° |
| 2026-04-30 20:05 | 11.44823 | 123.19760 | 37900 ft | 460 kts | 324° |
| 2026-04-30 20:06 | 11.50099 | 123.16063 | 37889 ft | 460 kts | 324° |
| 2026-04-30 20:06 | 11.55372 | 123.12367 | 37895 ft | 459 kts | 324° |
| 2026-04-30 20:07 | 11.60636 | 123.08676 | 37900 ft | 459 kts | 324° |
| 2026-04-30 20:08 | 11.68526 | 123.03139 | 37895 ft | 459 kts | 324° |
| 2026-04-30 20:08 | 11.73750 | 122.99472 | 37895 ft | 458 kts | 324° |
| 2026-04-30 20:09 | 11.78997 | 122.95786 | 37893 ft | 458 kts | 324° |
| 2026-04-30 20:09 | 11.86866 | 122.90255 | 37903 ft | 457 kts | 324° |
| 2026-04-30 20:10 | 11.94721 | 122.84731 | 37888 ft | 457 kts | 323° |
| 2026-04-30 20:11 | 12.02564 | 122.79211 | 37896 ft | 456 kts | 323° |
| 2026-04-30 20:11 | 12.07758 | 122.75551 | 37888 ft | 456 kts | 323° |
| 2026-04-30 20:12 | 12.15599 | 122.70025 | 37906 ft | 456 kts | 323° |
| 2026-04-30 20:13 | 12.20821 | 122.66341 | 37897 ft | 456 kts | 323° |
| 2026-04-30 20:13 | 12.26048 | 122.62653 | 37891 ft | 456 kts | 323° |
| 2026-04-30 20:14 | 12.31269 | 122.58968 | 37901 ft | 456 kts | 323° |
| 2026-04-30 20:14 | 12.36497 | 122.55276 | 37898 ft | 457 kts | 323° |
| 2026-04-30 20:15 | 12.41729 | 122.51578 | 37900 ft | 457 kts | 323° |
| 2026-04-30 20:15 | 12.46962 | 122.47878 | 37902 ft | 457 kts | 323° |
| 2026-04-30 20:16 | 12.52157 | 122.44202 | 37909 ft | 457 kts | 323° |
| 2026-04-30 20:16 | 12.57386 | 122.40501 | 37904 ft | 457 kts | 323° |
| 2026-04-30 20:17 | 12.62609 | 122.36802 | 37904 ft | 456 kts | 323° |
| 2026-04-30 20:17 | 12.67834 | 122.33100 | 37903 ft | 456 kts | 323° |
| 2026-04-30 20:18 | 12.73055 | 122.29399 | 37891 ft | 456 kts | 323° |
| 2026-04-30 20:18 | 12.78267 | 122.25703 | 37900 ft | 456 kts | 323° |
| 2026-04-30 20:19 | 12.83482 | 122.22003 | 37902 ft | 455 kts | 323° |
| 2026-04-30 20:19 | 12.88691 | 122.18305 | 37900 ft | 455 kts | 323° |
| 2026-04-30 20:20 | 12.93897 | 122.14608 | 37897 ft | 455 kts | 323° |
| 2026-04-30 20:20 | 12.99079 | 122.10925 | 37893 ft | 455 kts | 323° |
| 2026-04-30 20:21 | 13.04279 | 122.07228 | 37896 ft | 455 kts | 323° |
| 2026-04-30 20:21 | 13.09485 | 122.03525 | 37908 ft | 455 kts | 323° |
| 2026-04-30 20:22 | 13.14688 | 121.99822 | 37905 ft | 455 kts | 323° |
| 2026-04-30 20:22 | 13.19897 | 121.96113 | 37894 ft | 455 kts | 323° |
| 2026-04-30 20:23 | 13.25099 | 121.92407 | 37912 ft | 455 kts | 323° |
| 2026-04-30 20:23 | 13.30310 | 121.88693 | 37911 ft | 456 kts | 323° |
| 2026-04-30 20:24 | 13.33764 | 121.86230 | 37916 ft | 456 kts | 323° |